Winston, Montana
Current Conditions -  °F | °C
As of 12:53 AM on Monday 24 Nov 2014 (Local Time) from KHLN Reporting Station
Overcast Overcast  
Wind Chill: 28°   Ceiling: 5000
Heat Index: 36°   Visibility: 10mi
Dew Point: 24°   Wind: 13mph
Humidity: 62%   Direction: 270°W
Pressure: 29.91"   Gusts: NA
Location:  46.47°N, 111.68°W
Report Text: KHLN 240753Z 27011KT 10SM BKN050 OVC060 02/M04 A2991 RMK AO2 SLP163 T00221044
Loading
Personal Weather Stations






























Interactive Weather Map New forecast layout! Learn more

10-Day Weather Forecast

Advertisements
Track Severe Weather on mobile